createdAt,value
2018-08-07T00:00:29.559Z,49.50
2018-08-07T00:01:01.338Z,49.60
2018-08-07T00:01:33.104Z,49.60
2018-08-07T00:02:04.870Z,49.60
2018-08-07T00:02:36.627Z,49.70
2018-08-07T00:03:08.396Z,49.70
2018-08-07T00:04:12.197Z,50.60
2018-08-07T00:04:43.952Z,49.80
2018-08-07T00:05:15.719Z,49.80
2018-08-07T00:05:47.481Z,49.80
2018-08-07T00:06:19.301Z,49.80
2018-08-07T00:06:51.047Z,49.80
2018-08-07T00:07:22.892Z,49.80
2018-08-07T00:07:54.635Z,49.80
2018-08-07T00:08:26.404Z,49.80
2018-08-07T00:08:58.183Z,49.90
2018-08-07T00:09:29.942Z,49.90
2018-08-07T00:10:01.738Z,49.90
2018-08-07T00:10:33.497Z,49.90
2018-08-07T00:11:05.265Z,50.00
2018-08-07T00:11:37.028Z,50.00
2018-08-07T00:12:08.809Z,50.00
2018-08-07T00:12:40.568Z,50.10
2018-08-07T00:13:12.353Z,50.00
2018-08-07T00:13:44.100Z,50.10
2018-08-07T00:14:15.864Z,50.10
2018-08-07T00:14:47.625Z,50.00
2018-08-07T00:15:19.387Z,50.10
2018-08-07T00:15:51.144Z,50.00
2018-08-07T00:16:22.921Z,50.00
2018-08-07T00:16:54.680Z,50.00
2018-08-07T00:17:26.438Z,50.70
2018-08-07T00:17:58.210Z,50.10
2018-08-07T00:18:29.978Z,50.10
2018-08-07T00:19:01.741Z,50.20
2018-08-07T00:19:33.498Z,50.20
2018-08-07T00:20:05.261Z,50.20
2018-08-07T00:20:37.091Z,50.30
2018-08-07T00:21:08.880Z,50.20
2018-08-07T00:21:40.649Z,50.30
2018-08-07T00:22:12.405Z,50.20
2018-08-07T00:22:44.163Z,50.10
2018-08-07T00:23:16.021Z,50.10
2018-08-07T00:24:19.817Z,50.20
2018-08-07T00:24:51.586Z,50.40
2018-08-07T00:25:23.358Z,50.10
2018-08-07T00:25:55.137Z,50.30
2018-08-07T00:26:26.891Z,50.20
2018-08-07T00:26:58.666Z,49.90
2018-08-07T00:27:30.420Z,50.20
2018-08-07T00:28:02.179Z,50.20
2018-08-07T00:28:33.947Z,50.10
2018-08-07T00:29:05.809Z,50.20
2018-08-07T00:29:37.573Z,50.40
2018-08-07T00:30:09.337Z,50.20
2018-08-07T00:30:41.102Z,50.20
2018-08-07T00:31:12.848Z,50.10
2018-08-07T00:31:44.838Z,50.00
2018-08-07T00:32:16.596Z,49.80
2018-08-07T00:32:48.367Z,49.60
2018-08-07T00:33:20.119Z,49.80
2018-08-07T00:33:51.908Z,50.00
2018-08-07T00:34:23.685Z,49.90
2018-08-07T00:34:55.442Z,49.80
2018-08-07T00:35:27.199Z,49.80
2018-08-07T00:35:58.957Z,50.40
2018-08-07T00:36:30.728Z,49.60
2018-08-07T00:37:02.505Z,50.20
2018-08-07T00:37:34.268Z,49.70
2018-08-07T00:38:06.021Z,49.40
2018-08-07T00:38:37.775Z,49.30
2018-08-07T00:39:09.532Z,49.30
2018-08-07T00:39:41.300Z,49.30
2018-08-07T00:40:13.175Z,49.20
2018-08-07T00:40:44.943Z,49.10
2018-08-07T00:41:16.696Z,49.10
2018-08-07T00:41:48.459Z,49.00
2018-08-07T00:42:20.220Z,49.00
2018-08-07T00:42:51.986Z,49.00
2018-08-07T00:43:23.868Z,49.10
2018-08-07T00:43:55.642Z,49.10
2018-08-07T00:44:27.427Z,49.10
2018-08-07T00:44:59.166Z,49.10
2018-08-07T00:45:30.924Z,49.20
2018-08-07T00:46:02.693Z,49.20
2018-08-07T00:46:34.443Z,49.20
2018-08-07T00:47:06.201Z,49.20
2018-08-07T00:47:37.986Z,49.20
2018-08-07T00:48:09.744Z,49.20
2018-08-07T00:48:41.501Z,49.40
2018-08-07T00:49:13.259Z,49.40
2018-08-07T00:49:45.029Z,49.40
2018-08-07T00:50:16.848Z,49.50
2018-08-07T00:50:48.596Z,49.50
2018-08-07T00:51:20.368Z,49.50
2018-08-07T00:51:52.560Z,49.40
2018-08-07T00:52:24.326Z,49.30
2018-08-07T00:52:56.105Z,49.30
2018-08-07T00:53:27.867Z,49.30
2018-08-07T00:53:59.756Z,49.20
2018-08-07T00:54:31.541Z,49.20
2018-08-07T00:55:03.296Z,49.20
2018-08-07T00:55:35.355Z,49.10
2018-08-07T00:56:07.106Z,49.10
2018-08-07T00:56:38.871Z,49.00
2018-08-07T00:57:10.628Z,48.90
2018-08-07T00:57:42.417Z,49.00
2018-08-07T00:58:14.338Z,49.00
2018-08-07T00:58:46.114Z,48.90
2018-08-07T00:59:17.888Z,48.90
2018-08-07T00:59:49.655Z,48.90
2018-08-07T01:00:21.417Z,48.90
2018-08-07T01:00:53.196Z,48.80
2018-08-07T01:01:24.965Z,48.90
2018-08-07T01:01:56.724Z,49.20
2018-08-07T01:02:28.490Z,49.40
2018-08-07T01:03:00.257Z,49.60
2018-08-07T01:03:32.026Z,49.50
2018-08-07T01:04:03.787Z,49.60
2018-08-07T01:04:35.887Z,49.70
2018-08-07T01:05:07.737Z,49.90
2018-08-07T01:05:39.507Z,50.00
2018-08-07T01:06:11.272Z,50.10
2018-08-07T01:06:43.047Z,50.30
2018-08-07T01:07:14.812Z,50.40
2018-08-07T01:07:46.568Z,50.40
2018-08-07T01:08:18.350Z,50.40
2018-08-07T01:08:50.108Z,50.50
2018-08-07T01:09:21.864Z,50.60
2018-08-07T01:09:53.627Z,50.50
2018-08-07T01:10:25.407Z,50.40
2018-08-07T01:10:57.175Z,50.30
2018-08-07T01:11:28.955Z,50.50
2018-08-07T01:12:00.708Z,50.50
2018-08-07T01:12:32.510Z,50.50
2018-08-07T01:13:04.267Z,50.50
2018-08-07T01:13:36.026Z,50.40
2018-08-07T01:14:07.789Z,50.80
2018-08-07T01:14:39.540Z,50.60
2018-08-07T01:15:11.309Z,50.50
2018-08-07T01:15:43.085Z,50.50
2018-08-07T01:16:14.824Z,50.40
2018-08-07T01:16:46.597Z,50.40
2018-08-07T01:17:18.364Z,50.40
2018-08-07T01:17:50.124Z,50.50
2018-08-07T01:18:21.884Z,50.40
2018-08-07T01:18:53.648Z,50.30
2018-08-07T01:19:25.401Z,50.10
2018-08-07T01:19:57.159Z,50.20
2018-08-07T01:20:28.920Z,50.30
2018-08-07T01:21:00.693Z,50.40
2018-08-07T01:21:32.451Z,50.30
2018-08-07T01:22:04.213Z,50.30
2018-08-07T01:22:35.983Z,50.20
2018-08-07T01:23:07.758Z,50.20
2018-08-07T01:23:39.516Z,50.30
2018-08-07T01:24:11.282Z,50.40
2018-08-07T01:24:43.044Z,50.50
2018-08-07T01:25:14.830Z,50.50
2018-08-07T01:25:46.616Z,50.50
2018-08-07T01:26:18.374Z,50.40
2018-08-07T01:26:50.141Z,50.20
2018-08-07T01:27:21.896Z,50.20
2018-08-07T01:27:53.675Z,50.10
2018-08-07T01:28:25.425Z,50.00
2018-08-07T01:28:57.178Z,50.00
2018-08-07T01:29:28.977Z,49.90
2018-08-07T01:31:04.831Z,50.00
2018-08-07T01:31:36.593Z,50.00
2018-08-07T01:32:08.345Z,50.00
2018-08-07T01:32:40.120Z,50.40
2018-08-07T01:33:11.884Z,50.20
2018-08-07T01:33:43.647Z,50.10
2018-08-07T01:34:15.399Z,50.30
2018-08-07T01:34:47.163Z,50.40
2018-08-07T01:35:18.923Z,50.50
2018-08-07T01:35:50.676Z,50.40
2018-08-07T01:36:22.449Z,50.30
2018-08-07T01:36:54.200Z,50.40
2018-08-07T01:37:25.982Z,50.50
2018-08-07T01:37:57.727Z,51.00
2018-08-07T01:38:29.480Z,50.40
2018-08-07T01:39:01.238Z,50.50
2018-08-07T01:39:32.998Z,50.60
2018-08-07T01:40:04.777Z,50.60
2018-08-07T01:40:36.529Z,50.70
2018-08-07T01:41:08.297Z,50.70
2018-08-07T01:41:40.073Z,50.90
2018-08-07T01:42:11.851Z,51.00
2018-08-07T01:42:43.814Z,51.10
2018-08-07T01:43:15.601Z,51.10
2018-08-07T01:43:47.381Z,50.90
2018-08-07T01:44:19.182Z,50.90
2018-08-07T01:44:50.943Z,51.00
2018-08-07T01:45:22.711Z,51.10
2018-08-07T01:45:54.515Z,51.10
2018-08-07T01:46:26.281Z,50.90
2018-08-07T01:46:58.028Z,50.80
2018-08-07T01:47:29.794Z,50.70
2018-08-07T01:48:01.587Z,50.80
2018-08-07T01:48:33.344Z,50.80
2018-08-07T01:49:05.109Z,50.80
2018-08-07T01:49:36.881Z,51.00
2018-08-07T01:50:08.918Z,51.00
2018-08-07T01:50:40.678Z,50.80
2018-08-07T01:51:12.450Z,50.80
2018-08-07T01:51:44.216Z,50.80
2018-08-07T01:52:16.158Z,50.90
2018-08-07T01:52:47.914Z,50.80
2018-08-07T01:53:19.697Z,50.90
2018-08-07T01:53:51.457Z,50.80
2018-08-07T01:54:23.218Z,50.90
2018-08-07T01:54:54.971Z,50.80
2018-08-07T01:55:26.742Z,50.70
2018-08-07T01:55:58.500Z,50.80
2018-08-07T01:56:30.281Z,50.80
2018-08-07T01:57:02.043Z,50.70
2018-08-07T01:57:33.835Z,50.60
2018-08-07T01:58:05.610Z,50.50
2018-08-07T01:58:37.373Z,50.40
2018-08-07T01:59:09.130Z,50.40
2018-08-07T01:59:40.902Z,50.30
2018-08-07T02:00:12.673Z,50.30
2018-08-07T02:00:44.424Z,50.30
2018-08-07T02:01:16.190Z,50.30
2018-08-07T02:01:48.149Z,50.30
2018-08-07T02:02:19.906Z,50.30
2018-08-07T02:02:51.665Z,50.30
2018-08-07T02:03:23.432Z,50.20
2018-08-07T02:03:55.207Z,50.10
2018-08-07T02:04:26.981Z,50.30
2018-08-07T02:04:58.733Z,50.20
2018-08-07T02:05:30.512Z,50.20
2018-08-07T02:06:02.274Z,50.30
2018-08-07T02:06:34.040Z,50.40
2018-08-07T02:07:05.820Z,50.40
2018-08-07T02:07:37.573Z,50.10
2018-08-07T02:08:09.340Z,50.20
2018-08-07T02:08:41.109Z,50.00
2018-08-07T02:09:12.855Z,50.00
2018-08-07T02:09:44.623Z,50.00
2018-08-07T02:10:16.379Z,50.60
2018-08-07T02:10:48.135Z,50.00
2018-08-07T02:11:19.922Z,49.90
2018-08-07T02:11:51.673Z,49.90
2018-08-07T02:12:23.728Z,49.90
2018-08-07T02:12:55.467Z,49.90
2018-08-07T02:13:27.226Z,49.90
2018-08-07T02:13:58.980Z,49.90
2018-08-07T02:14:30.737Z,50.40
2018-08-07T02:15:02.500Z,49.70
2018-08-07T02:15:34.273Z,49.70
2018-08-07T02:16:06.041Z,49.70
2018-08-07T02:16:37.832Z,49.70
2018-08-07T02:17:09.609Z,49.60
2018-08-07T02:17:41.373Z,49.60
2018-08-07T02:18:13.116Z,49.70
2018-08-07T02:18:44.875Z,49.60
2018-08-07T02:19:48.677Z,49.80
2018-08-07T02:20:20.431Z,49.60
2018-08-07T02:20:52.197Z,49.60
2018-08-07T02:21:23.996Z,50.10
2018-08-07T02:21:55.756Z,49.50
2018-08-07T02:22:27.518Z,49.50
2018-08-07T02:22:59.289Z,49.40
2018-08-07T02:23:31.072Z,49.30
2018-08-07T02:24:02.844Z,49.30
2018-08-07T02:25:06.648Z,49.40
2018-08-07T02:25:38.413Z,49.40
2018-08-07T02:26:10.183Z,49.40
2018-08-07T02:26:41.953Z,49.40
2018-08-07T02:27:13.709Z,49.50
2018-08-07T02:27:45.490Z,49.50
2018-08-07T02:28:17.240Z,49.50
2018-08-07T02:28:49.031Z,49.50
2018-08-07T02:29:20.976Z,49.40
2018-08-07T02:29:52.757Z,49.30
2018-08-07T02:30:24.523Z,49.10
2018-08-07T02:30:56.297Z,49.20
2018-08-07T02:31:28.061Z,49.20
2018-08-07T02:31:59.812Z,49.20
2018-08-07T02:32:31.582Z,49.20
2018-08-07T02:33:03.334Z,49.30
2018-08-07T02:33:35.094Z,49.30
2018-08-07T02:34:06.845Z,49.20
2018-08-07T02:34:38.636Z,49.80
2018-08-07T02:35:10.580Z,49.20
2018-08-07T02:35:42.348Z,49.30
2018-08-07T02:36:14.120Z,49.40
2018-08-07T02:36:45.913Z,49.50
2018-08-07T02:37:17.663Z,49.60
2018-08-07T02:37:49.424Z,49.50
2018-08-07T02:38:21.185Z,49.50
2018-08-07T02:38:52.946Z,49.70
2018-08-07T02:39:24.710Z,49.70
2018-08-07T02:39:56.477Z,49.70
2018-08-07T02:40:28.234Z,49.70
2018-08-07T02:41:00.015Z,49.80
2018-08-07T02:41:31.785Z,49.40
2018-08-07T02:42:03.536Z,49.80
2018-08-07T02:42:35.341Z,49.90
2018-08-07T02:43:07.098Z,50.00
2018-08-07T02:43:38.874Z,50.00
2018-08-07T02:44:10.637Z,50.00
2018-08-07T02:44:42.398Z,50.10
2018-08-07T02:45:14.144Z,50.50
2018-08-07T02:45:45.916Z,49.90
2018-08-07T02:46:17.687Z,50.30
2018-08-07T02:46:49.469Z,49.90
2018-08-07T02:47:21.231Z,49.90
2018-08-07T02:47:53.004Z,49.80
2018-08-07T02:48:24.775Z,50.40
2018-08-07T02:48:56.522Z,49.80
2018-08-07T02:49:28.281Z,49.80
2018-08-07T02:50:00.040Z,49.70
2018-08-07T02:50:32.059Z,49.70
2018-08-07T02:51:03.816Z,49.70
2018-08-07T02:51:35.586Z,49.80
2018-08-07T02:52:07.353Z,49.60
2018-08-07T02:52:39.119Z,49.70
2018-08-07T02:53:10.868Z,49.60
2018-08-07T02:53:42.641Z,49.50
2018-08-07T02:54:14.395Z,49.50
2018-08-07T02:54:46.156Z,49.50
2018-08-07T02:55:17.930Z,49.40
2018-08-07T02:55:49.736Z,49.70
2018-08-07T02:56:21.471Z,49.60
2018-08-07T02:56:53.272Z,49.50
2018-08-07T02:57:25.039Z,49.50
2018-08-07T02:57:56.806Z,49.50
2018-08-07T02:58:28.568Z,49.40
2018-08-07T02:59:00.326Z,49.30
2018-08-07T02:59:32.098Z,49.50
2018-08-07T03:00:03.868Z,49.50
2018-08-07T03:00:35.634Z,49.70
2018-08-07T03:01:07.385Z,49.50
2018-08-07T03:01:39.148Z,49.50
2018-08-07T03:02:10.915Z,49.40
2018-08-07T03:02:42.680Z,50.00
2018-08-07T03:03:14.455Z,49.60
2018-08-07T03:03:46.224Z,49.60
2018-08-07T03:04:17.973Z,49.70
2018-08-07T03:04:49.745Z,49.70
2018-08-07T03:05:21.509Z,49.70
2018-08-07T03:05:53.272Z,49.80
2018-08-07T03:06:25.225Z,49.70
2018-08-07T03:06:57.006Z,49.70
2018-08-07T03:07:28.761Z,49.70
2018-08-07T03:08:32.548Z,49.80
2018-08-07T03:09:04.317Z,49.70
2018-08-07T03:09:36.064Z,49.70
2018-08-07T03:10:07.832Z,49.70
2018-08-07T03:10:39.597Z,49.80
2018-08-07T03:11:11.356Z,49.90
2018-08-07T03:11:43.111Z,49.90
2018-08-07T03:12:14.891Z,50.00
2018-08-07T03:12:46.661Z,50.10
2018-08-07T03:13:18.424Z,50.10
2018-08-07T03:13:50.199Z,50.10
2018-08-07T03:14:21.964Z,50.20
2018-08-07T03:14:53.721Z,50.20
2018-08-07T03:15:25.480Z,50.00
2018-08-07T03:15:57.279Z,50.00
2018-08-07T03:16:29.030Z,50.00
2018-08-07T03:17:00.786Z,50.00
2018-08-07T03:17:32.565Z,50.20
2018-08-07T03:18:04.345Z,50.20
2018-08-07T03:18:36.096Z,50.20
2018-08-07T03:19:07.869Z,50.20
2018-08-07T03:19:39.648Z,50.10
2018-08-07T03:20:11.424Z,50.00
2018-08-07T03:20:43.182Z,49.90
2018-08-07T03:21:14.939Z,49.80
2018-08-07T03:21:46.713Z,49.80
2018-08-07T03:22:18.472Z,49.70
2018-08-07T03:22:51.064Z,49.70
2018-08-07T03:23:22.827Z,49.70
2018-08-07T03:23:54.597Z,49.70
2018-08-07T03:24:26.366Z,49.80
2018-08-07T03:24:58.146Z,49.70
2018-08-07T03:25:29.910Z,49.80
2018-08-07T03:26:01.667Z,49.90
2018-08-07T03:26:33.630Z,49.80
2018-08-07T03:27:05.384Z,49.80
2018-08-07T03:27:37.152Z,49.80
2018-08-07T03:28:08.931Z,49.90
2018-08-07T03:28:40.714Z,49.90
2018-08-07T03:29:12.649Z,50.00
2018-08-07T03:29:44.396Z,50.10
2018-08-07T03:30:16.242Z,50.10
2018-08-07T03:30:47.999Z,50.20
2018-08-07T03:31:19.760Z,50.20
2018-08-07T03:31:51.578Z,50.30
2018-08-07T03:32:23.350Z,50.30
2018-08-07T03:32:55.122Z,50.20
2018-08-07T03:33:26.900Z,50.20
2018-08-07T03:33:58.668Z,50.10
2018-08-07T03:34:30.437Z,50.10
2018-08-07T03:35:02.218Z,50.10
2018-08-07T03:35:33.975Z,50.20
2018-08-07T03:36:05.734Z,50.20
2018-08-07T03:36:37.504Z,50.20
2018-08-07T03:37:09.293Z,50.10
2018-08-07T03:37:41.088Z,50.10
2018-08-07T03:38:12.876Z,50.10
2018-08-07T03:38:44.632Z,49.90
2018-08-07T03:39:16.393Z,49.90
2018-08-07T03:39:48.162Z,49.90
2018-08-07T03:40:19.913Z,49.70
2018-08-07T03:40:51.660Z,49.60
2018-08-07T03:41:23.448Z,49.60
2018-08-07T03:41:55.211Z,49.30
2018-08-07T03:42:27.010Z,49.20
2018-08-07T03:42:58.773Z,49.20
2018-08-07T03:43:30.523Z,49.20
2018-08-07T03:44:02.294Z,49.20
2018-08-07T03:44:34.058Z,49.10
2018-08-07T03:45:05.807Z,49.30
2018-08-07T03:45:37.570Z,49.30
2018-08-07T03:46:09.327Z,49.30
2018-08-07T03:46:41.084Z,49.30
2018-08-07T03:47:12.848Z,49.30
2018-08-07T03:47:44.613Z,49.40
2018-08-07T03:48:16.381Z,49.60
2018-08-07T03:48:48.139Z,49.70
2018-08-07T03:49:19.911Z,49.70
2018-08-07T03:49:51.949Z,49.80
2018-08-07T03:50:23.697Z,49.80
2018-08-07T03:50:55.456Z,49.80
2018-08-07T03:51:27.289Z,49.80
2018-08-07T03:51:59.046Z,49.90
2018-08-07T03:52:30.872Z,49.90
2018-08-07T03:53:02.701Z,49.80
2018-08-07T03:53:34.664Z,49.70
2018-08-07T03:54:06.434Z,49.60
2018-08-07T03:54:38.207Z,49.60
2018-08-07T03:55:09.964Z,49.70
2018-08-07T03:55:41.721Z,49.60
2018-08-07T03:56:13.489Z,49.60
2018-08-07T03:56:45.246Z,49.60
2018-08-07T03:57:17.021Z,50.40
2018-08-07T03:57:48.789Z,50.50
2018-08-07T03:58:20.555Z,50.40
2018-08-07T03:58:52.350Z,50.40
2018-08-07T03:59:24.100Z,50.30
2018-08-07T03:59:56.094Z,50.20
2018-08-07T04:00:27.872Z,50.10
2018-08-07T04:00:59.690Z,49.60
2018-08-07T04:01:31.450Z,49.70
2018-08-07T04:02:03.212Z,49.60
2018-08-07T04:02:35.017Z,49.50
2018-08-07T04:03:06.787Z,49.40
2018-08-07T04:03:38.538Z,49.40
2018-08-07T04:04:10.305Z,49.10
2018-08-07T04:04:42.065Z,48.90
2018-08-07T04:05:13.824Z,49.70
2018-08-07T04:05:45.589Z,49.30
2018-08-07T04:06:17.381Z,49.10
2018-08-07T04:06:49.177Z,49.40
2018-08-07T04:07:52.976Z,49.70
2018-08-07T04:08:24.739Z,49.60
2018-08-07T04:08:56.522Z,49.10
2018-08-07T04:09:28.297Z,48.90
2018-08-07T04:10:00.141Z,49.00
2018-08-07T04:10:31.903Z,49.20
2018-08-07T04:11:03.668Z,49.00
2018-08-07T04:11:35.465Z,49.20
2018-08-07T04:12:07.423Z,49.30
2018-08-07T04:12:39.179Z,48.90
2018-08-07T04:13:10.942Z,49.20
2018-08-07T04:13:42.713Z,49.70
2018-08-07T04:14:14.473Z,49.70
2018-08-07T04:14:46.242Z,49.50
2018-08-07T04:15:18.040Z,49.30
2018-08-07T04:15:49.810Z,49.30
2018-08-07T04:16:21.572Z,49.30
2018-08-07T04:16:53.345Z,49.20
2018-08-07T04:17:25.106Z,49.20
2018-08-07T04:17:56.952Z,49.30
2018-08-07T04:18:28.713Z,49.20
2018-08-07T04:19:00.477Z,49.00
2018-08-07T04:19:32.237Z,49.40
2018-08-07T04:20:04.010Z,49.10
2018-08-07T04:20:35.778Z,49.20
2018-08-07T04:21:07.633Z,49.20
2018-08-07T04:21:39.402Z,49.30
2018-08-07T04:22:11.183Z,49.10
2018-08-07T04:22:42.949Z,49.00
2018-08-07T04:23:14.720Z,48.70
2018-08-07T04:23:46.488Z,49.10
2018-08-07T04:24:18.261Z,49.20
2018-08-07T04:24:50.020Z,49.20
2018-08-07T04:25:21.797Z,48.90
2018-08-07T04:25:53.664Z,49.60
2018-08-07T04:26:25.436Z,49.00
2018-08-07T04:26:57.213Z,48.70
2018-08-07T04:27:28.974Z,48.90
2018-08-07T04:28:00.740Z,49.20
2018-08-07T04:28:32.520Z,49.10
2018-08-07T04:29:04.300Z,49.40
2018-08-07T04:29:36.681Z,49.20
2018-08-07T04:30:08.704Z,49.30
2018-08-07T04:30:40.452Z,49.00
2018-08-07T04:31:12.213Z,48.80
2018-08-07T04:31:43.983Z,48.80
2018-08-07T04:32:16.313Z,48.50
2018-08-07T04:32:48.080Z,48.50
2018-08-07T04:33:19.872Z,48.50
2018-08-07T04:33:51.677Z,48.40
2018-08-07T04:34:23.476Z,48.40
2018-08-07T04:34:55.419Z,48.70
2018-08-07T04:35:27.196Z,48.50
2018-08-07T04:35:58.978Z,48.70
2018-08-07T04:36:30.733Z,49.20
2018-08-07T04:37:02.508Z,49.20
2018-08-07T04:37:34.280Z,48.90
2018-08-07T04:38:06.097Z,48.60
2018-08-07T04:38:37.867Z,48.70
2018-08-07T04:39:09.632Z,48.70
2018-08-07T04:39:41.563Z,48.90
2018-08-07T04:40:13.321Z,48.70
2018-08-07T04:40:45.077Z,48.70
2018-08-07T04:41:16.857Z,48.50
2018-08-07T04:41:48.620Z,48.50
2018-08-07T04:42:20.398Z,48.50
2018-08-07T04:42:52.164Z,48.50
2018-08-07T04:43:24.117Z,49.10
2018-08-07T04:43:55.892Z,48.90
2018-08-07T04:44:27.682Z,49.10
2018-08-07T04:44:59.435Z,48.50
2018-08-07T04:45:31.191Z,48.50
2018-08-07T04:46:02.964Z,48.80
2018-08-07T04:46:34.735Z,49.00
2018-08-07T04:47:06.506Z,48.60
2018-08-07T04:47:38.268Z,48.50
2018-08-07T04:48:10.033Z,48.60
2018-08-07T04:48:41.800Z,48.60
2018-08-07T04:49:13.577Z,48.50
2018-08-07T04:49:45.352Z,48.40
2018-08-07T04:50:17.096Z,48.30
2018-08-07T04:50:49.096Z,48.30
2018-08-07T04:51:20.874Z,48.40
2018-08-07T04:51:52.666Z,48.30
2018-08-07T04:52:24.590Z,48.30
2018-08-07T04:52:56.350Z,48.40
2018-08-07T04:53:28.121Z,48.20
2018-08-07T04:53:59.892Z,48.30
2018-08-07T04:54:31.693Z,48.30
2018-08-07T04:55:03.456Z,48.30
2018-08-07T04:55:35.208Z,48.60
2018-08-07T04:56:06.965Z,48.40
2018-08-07T04:56:38.727Z,48.40
2018-08-07T04:57:10.511Z,48.40
2018-08-07T04:57:42.279Z,48.40
2018-08-07T04:58:14.052Z,49.10
2018-08-07T04:58:45.849Z,48.50
2018-08-07T04:59:17.606Z,48.50
2018-08-07T04:59:49.367Z,48.20
2018-08-07T05:00:21.337Z,48.60
2018-08-07T05:00:53.132Z,49.40
2018-08-07T05:01:24.881Z,49.50
2018-08-07T05:01:56.651Z,49.80
2018-08-07T05:02:28.436Z,49.90
2018-08-07T05:03:00.223Z,49.40
2018-08-07T05:03:32.018Z,50.50
2018-08-07T05:04:03.778Z,49.80
2018-08-07T05:04:35.550Z,49.20
2018-08-07T05:05:07.342Z,49.20
2018-08-07T05:05:39.117Z,48.80
2018-08-07T05:06:10.885Z,48.70
2018-08-07T05:06:42.666Z,48.90
2018-08-07T05:07:14.445Z,48.60
2018-08-07T05:07:46.211Z,48.50
2018-08-07T05:08:17.974Z,48.40
2018-08-07T05:08:49.753Z,48.50
2018-08-07T05:09:21.542Z,49.10
2018-08-07T05:09:53.320Z,48.40
2018-08-07T05:10:25.092Z,48.70
2018-08-07T05:10:57.064Z,48.60
2018-08-07T05:11:28.889Z,49.20
2018-08-07T05:12:00.663Z,48.80
2018-08-07T05:13:04.473Z,49.10
2018-08-07T05:13:36.256Z,49.00
2018-08-07T05:14:08.036Z,49.50
2018-08-07T05:14:39.986Z,49.50
2018-08-07T05:15:11.748Z,49.80
2018-08-07T05:15:43.537Z,49.70
2018-08-07T05:16:15.301Z,49.60
2018-08-07T05:16:47.060Z,49.50
2018-08-07T05:17:18.855Z,49.30
2018-08-07T05:17:50.958Z,49.40
2018-08-07T05:18:22.724Z,49.50
2018-08-07T05:18:54.489Z,49.30
2018-08-07T05:19:26.258Z,49.70
2018-08-07T05:19:58.036Z,49.60
2018-08-07T05:20:29.796Z,49.40
2018-08-07T05:21:01.561Z,49.60
2018-08-07T05:21:33.361Z,49.80
2018-08-07T05:22:05.110Z,49.60
2018-08-07T05:22:36.931Z,49.50
2018-08-07T05:23:08.853Z,49.30
2018-08-07T05:23:40.603Z,48.90
2018-08-07T05:24:12.385Z,49.00
2018-08-07T05:24:44.148Z,48.90
2018-08-07T05:25:15.913Z,49.40
2018-08-07T05:25:47.677Z,49.00
2018-08-07T05:26:19.440Z,49.50
2018-08-07T05:26:51.279Z,48.80
2018-08-07T05:27:23.021Z,49.20
2018-08-07T05:27:54.824Z,48.80
2018-08-07T05:28:26.597Z,48.60
2018-08-07T05:28:58.348Z,48.80
2018-08-07T05:29:30.112Z,49.10
2018-08-07T05:30:01.881Z,49.40
2018-08-07T05:30:33.642Z,50.70
2018-08-07T05:31:05.409Z,49.90
2018-08-07T05:31:37.168Z,49.80
2018-08-07T05:32:08.945Z,50.10
2018-08-07T05:32:40.709Z,50.50
2018-08-07T05:33:12.476Z,49.70
2018-08-07T05:33:44.287Z,49.90
2018-08-07T05:34:16.071Z,50.10
2018-08-07T05:34:47.828Z,50.10
2018-08-07T05:35:19.617Z,49.60
2018-08-07T05:35:51.431Z,49.60
2018-08-07T05:36:23.350Z,49.50
2018-08-07T05:36:55.108Z,49.60
2018-08-07T05:37:26.870Z,49.90
2018-08-07T05:37:58.628Z,49.60
2018-08-07T05:38:31.011Z,49.60
2018-08-07T05:39:34.877Z,49.80
2018-08-07T05:40:06.632Z,49.60
2018-08-07T05:40:38.423Z,49.70
2018-08-07T05:41:10.377Z,49.90
2018-08-07T05:41:42.133Z,50.00
2018-08-07T05:42:13.906Z,49.50
2018-08-07T05:42:45.764Z,50.20
2018-08-07T05:43:17.629Z,49.40
2018-08-07T05:43:49.421Z,49.70
2018-08-07T05:44:21.184Z,49.50
2018-08-07T05:44:52.993Z,50.10
2018-08-07T05:45:24.759Z,49.30
2018-08-07T05:45:56.514Z,49.50
2018-08-07T05:46:28.279Z,49.80
2018-08-07T05:47:00.048Z,49.50
2018-08-07T05:47:31.808Z,49.50
2018-08-07T05:48:03.573Z,49.40
2018-08-07T05:48:35.348Z,49.60
2018-08-07T05:49:07.117Z,50.50
2018-08-07T05:49:38.893Z,50.40
2018-08-07T05:50:10.737Z,49.80
2018-08-07T05:50:42.919Z,49.60
2018-08-07T05:51:14.782Z,49.70
2018-08-07T05:51:46.544Z,50.10
2018-08-07T05:52:18.324Z,49.80
2018-08-07T05:52:50.338Z,49.80
2018-08-07T05:53:22.081Z,49.40
2018-08-07T05:53:53.864Z,49.40
2018-08-07T05:54:25.664Z,49.10
2018-08-07T05:54:57.431Z,49.10
2018-08-07T05:55:29.192Z,49.10
2018-08-07T05:56:00.967Z,49.10
2018-08-07T05:56:32.728Z,49.00
2018-08-07T05:57:05.207Z,49.00
2018-08-07T05:57:36.981Z,49.20
2018-08-07T05:58:08.738Z,49.20
2018-08-07T05:58:40.530Z,49.30
2018-08-07T05:59:12.475Z,49.30
2018-08-07T05:59:44.230Z,49.20
2018-08-07T06:00:16.005Z,49.30
2018-08-07T06:00:47.769Z,49.20
2018-08-07T06:01:19.532Z,49.20
2018-08-07T06:01:51.298Z,49.20
2018-08-07T06:02:23.080Z,49.40
2018-08-07T06:02:55.565Z,49.30
2018-08-07T06:03:27.365Z,49.30
2018-08-07T06:03:59.140Z,49.40
2018-08-07T06:04:30.911Z,49.30
2018-08-07T06:05:02.704Z,49.80
2018-08-07T06:05:34.478Z,49.20
2018-08-07T06:06:06.239Z,49.20
2018-08-07T06:06:38.320Z,49.10
2018-08-07T06:07:10.097Z,49.30
2018-08-07T06:07:41.862Z,49.30
2018-08-07T06:08:13.632Z,49.60
2018-08-07T06:08:45.411Z,49.40
2018-08-07T06:09:17.162Z,49.70
2018-08-07T06:09:49.013Z,49.60
2018-08-07T06:10:20.779Z,49.70
2018-08-07T06:10:52.670Z,49.40
2018-08-07T06:11:24.579Z,49.40
2018-08-07T06:11:56.368Z,49.30
2018-08-07T06:12:28.141Z,49.60
2018-08-07T06:12:59.915Z,49.90
2018-08-07T06:13:31.690Z,49.40
2018-08-07T06:14:03.497Z,49.90
2018-08-07T06:14:35.281Z,50.00
2018-08-07T06:15:07.046Z,49.60
2018-08-07T06:15:39.097Z,49.70
2018-08-07T06:16:42.917Z,49.40
2018-08-07T06:17:14.686Z,49.90
2018-08-07T06:17:46.461Z,49.50
2018-08-07T06:18:18.225Z,49.20
2018-08-07T06:18:49.999Z,49.50
2018-08-07T06:19:21.764Z,50.10
2018-08-07T06:19:53.535Z,49.30
2018-08-07T06:20:25.316Z,49.60
2018-08-07T06:20:57.071Z,49.40
2018-08-07T06:22:00.865Z,49.60
2018-08-07T06:23:04.792Z,49.60
2018-08-07T06:23:36.544Z,49.70
2018-08-07T06:24:08.323Z,49.90
2018-08-07T06:24:40.122Z,49.80
2018-08-07T06:25:11.920Z,49.90
2018-08-07T06:25:43.880Z,50.00
2018-08-07T06:26:15.840Z,49.60
2018-08-07T06:26:47.609Z,49.50
2018-08-07T06:27:19.363Z,49.40
2018-08-07T06:27:51.125Z,49.80
2018-08-07T06:28:22.903Z,49.40
2018-08-07T06:28:54.680Z,49.40
2018-08-07T06:29:26.453Z,49.50
2018-08-07T06:29:58.246Z,49.60
2018-08-07T06:30:29.993Z,49.90
2018-08-07T06:31:01.751Z,49.60
2018-08-07T06:31:33.558Z,50.10
2018-08-07T06:32:05.525Z,50.20
2018-08-07T06:32:37.311Z,50.00
2018-08-07T06:33:09.164Z,50.00
2018-08-07T06:33:40.916Z,49.50
2018-08-07T06:34:12.684Z,49.30
2018-08-07T06:34:44.459Z,49.60
2018-08-07T06:35:16.233Z,49.40
2018-08-07T06:35:48.002Z,49.40
2018-08-07T06:36:19.792Z,49.60
2018-08-07T06:36:51.559Z,49.50
2018-08-07T06:37:23.324Z,49.60
2018-08-07T06:37:55.099Z,49.40
2018-08-07T06:38:27.024Z,49.30
2018-08-07T06:38:58.800Z,49.50
2018-08-07T06:39:30.590Z,49.30
2018-08-07T06:40:02.353Z,49.30
2018-08-07T06:40:34.120Z,49.30
2018-08-07T06:41:05.893Z,49.30
2018-08-07T06:41:37.660Z,49.30
2018-08-07T06:42:09.431Z,49.20
2018-08-07T06:42:41.191Z,49.20
2018-08-07T06:43:13.019Z,49.20
2018-08-07T06:43:44.786Z,49.10
2018-08-07T06:44:16.561Z,49.00
2018-08-07T06:44:48.339Z,49.10
2018-08-07T06:45:20.128Z,49.50
2018-08-07T06:45:51.893Z,49.20
2018-08-07T06:46:23.647Z,49.40
2018-08-07T06:46:55.425Z,49.20
2018-08-07T06:47:27.176Z,49.30
2018-08-07T06:47:58.974Z,49.20
2018-08-07T06:48:30.896Z,49.50
2018-08-07T06:49:02.677Z,49.70
2018-08-07T06:49:34.435Z,49.40
2018-08-07T06:50:06.229Z,49.50
2018-08-07T06:50:38.169Z,49.00
2018-08-07T06:51:09.916Z,49.30
2018-08-07T06:51:41.703Z,49.20
2018-08-07T06:52:13.479Z,49.10
2018-08-07T06:52:45.244Z,49.00
2018-08-07T06:53:17.008Z,48.90
2018-08-07T06:53:48.781Z,48.90
2018-08-07T06:54:20.542Z,49.00
2018-08-07T06:54:52.357Z,49.50
2018-08-07T06:55:24.122Z,49.10
2018-08-07T06:55:56.010Z,48.90
2018-08-07T06:56:27.761Z,48.80